sensor_id;sensor_type;location;lat;lon;timestamp;P1;durP1;ratioP1;P2;durP2;ratioP2
60641;SDS011;46837;52.446;-1.930;2023-05-18T00:00:10;19.36;;;10.62;;
60641;SDS011;46837;52.446;-1.930;2023-05-18T00:01:07;16.78;;;11.12;;
60641;SDS011;46837;52.446;-1.930;2023-05-18T00:02:07;12.84;;;8.70;;
60641;SDS011;46837;52.446;-1.930;2023-05-18T00:03:07;18.42;;;9.28;;
60641;SDS011;46837;52.446;-1.930;2023-05-18T00:04:07;16.60;;;9.92;;
60641;SDS011;46837;52.446;-1.930;2023-05-18T00:05:07;12.24;;;10.62;;
60641;SDS011;46837;52.446;-1.930;2023-05-18T00:06:07;15.00;;;10.76;;
60641;SDS011;46837;52.446;-1.930;2023-05-18T00:07:07;14.10;;;9.46;;
60641;SDS011;46837;52.446;-1.930;2023-05-18T00:08:07;16.56;;;10.26;;
60641;SDS011;46837;52.446;-1.930;2023-05-18T00:09:07;17.54;;;9.36;;
60641;SDS011;46837;52.446;-1.930;2023-05-18T00:10:07;13.54;;;9.06;;
60641;SDS011;46837;52.446;-1.930;2023-05-18T00:11:07;15.82;;;9.66;;
60641;SDS011;46837;52.446;-1.930;2023-05-18T00:12:07;16.42;;;10.50;;
60641;SDS011;46837;52.446;-1.930;2023-05-18T00:13:08;19.02;;;9.60;;
60641;SDS011;46837;52.446;-1.930;2023-05-18T00:14:07;14.34;;;9.02;;
60641;SDS011;46837;52.446;-1.930;2023-05-18T00:15:07;18.88;;;10.82;;
60641;SDS011;46837;52.446;-1.930;2023-05-18T00:16:07;14.82;;;9.90;;
60641;SDS011;46837;52.446;-1.930;2023-05-18T00:17:07;15.34;;;10.04;;
60641;SDS011;46837;52.446;-1.930;2023-05-18T00:18:07;14.68;;;9.98;;
60641;SDS011;46837;52.446;-1.930;2023-05-18T00:19:07;16.48;;;8.96;;
60641;SDS011;46837;52.446;-1.930;2023-05-18T00:20:07;13.18;;;9.38;;
60641;SDS011;46837;52.446;-1.930;2023-05-18T00:21:07;16.00;;;8.88;;
60641;SDS011;46837;52.446;-1.930;2023-05-18T00:22:07;19.44;;;9.48;;
60641;SDS011;46837;52.446;-1.930;2023-05-18T00:23:10;17.64;;;10.44;;
60641;SDS011;46837;52.446;-1.930;2023-05-18T00:24:07;16.58;;;9.60;;
60641;SDS011;46837;52.446;-1.930;2023-05-18T00:25:07;16.38;;;9.88;;
60641;SDS011;46837;52.446;-1.930;2023-05-18T00:26:07;13.60;;;9.40;;
60641;SDS011;46837;52.446;-1.930;2023-05-18T00:27:07;14.56;;;9.68;;
60641;SDS011;46837;52.446;-1.930;2023-05-18T00:28:07;13.46;;;9.70;;
60641;SDS011;46837;52.446;-1.930;2023-05-18T00:29:07;13.86;;;9.76;;
60641;SDS011;46837;52.446;-1.930;2023-05-18T00:30:07;15.20;;;9.64;;
60641;SDS011;46837;52.446;-1.930;2023-05-18T00:31:07;20.30;;;10.12;;
60641;SDS011;46837;52.446;-1.930;2023-05-18T00:32:07;17.58;;;9.82;;
60641;SDS011;46837;52.446;-1.930;2023-05-18T00:33:07;18.74;;;10.20;;
60641;SDS011;46837;52.446;-1.930;2023-05-18T00:34:07;21.98;;;10.54;;
60641;SDS011;46837;52.446;-1.930;2023-05-18T00:35:07;20.40;;;10.42;;
60641;SDS011;46837;52.446;-1.930;2023-05-18T00:36:07;14.84;;;9.06;;
60641;SDS011;46837;52.446;-1.930;2023-05-18T00:37:07;13.38;;;9.44;;
60641;SDS011;46837;52.446;-1.930;2023-05-18T00:38:07;15.50;;;9.36;;
60641;SDS011;46837;52.446;-1.930;2023-05-18T00:39:07;15.78;;;10.80;;
60641;SDS011;46837;52.446;-1.930;2023-05-18T00:40:07;15.22;;;9.84;;
60641;SDS011;46837;52.446;-1.930;2023-05-18T00:41:07;22.48;;;10.98;;
60641;SDS011;46837;52.446;-1.930;2023-05-18T00:42:07;20.36;;;12.20;;
60641;SDS011;46837;52.446;-1.930;2023-05-18T00:43:07;17.02;;;12.04;;
60641;SDS011;46837;52.446;-1.930;2023-05-18T00:44:07;18.72;;;12.56;;
60641;SDS011;46837;52.446;-1.930;2023-05-18T00:45:07;17.76;;;11.38;;
60641;SDS011;46837;52.446;-1.930;2023-05-18T00:46:07;16.88;;;10.70;;
60641;SDS011;46837;52.446;-1.930;2023-05-18T00:47:07;16.70;;;10.54;;
60641;SDS011;46837;52.446;-1.930;2023-05-18T00:48:07;16.88;;;11.92;;
60641;SDS011;46837;52.446;-1.930;2023-05-18T00:49:07;16.90;;;12.04;;
60641;SDS011;46837;52.446;-1.930;2023-05-18T00:50:07;19.66;;;12.48;;
60641;SDS011;46837;52.446;-1.930;2023-05-18T00:51:07;18.60;;;11.20;;
60641;SDS011;46837;52.446;-1.930;2023-05-18T00:52:07;19.10;;;10.96;;
60641;SDS011;46837;52.446;-1.930;2023-05-18T00:53:07;17.98;;;11.14;;
60641;SDS011;46837;52.446;-1.930;2023-05-18T00:54:07;17.12;;;11.04;;
60641;SDS011;46837;52.446;-1.930;2023-05-18T00:55:07;15.88;;;9.98;;
60641;SDS011;46837;52.446;-1.930;2023-05-18T00:56:07;20.24;;;11.48;;
60641;SDS011;46837;52.446;-1.930;2023-05-18T00:57:07;15.24;;;9.70;;
60641;SDS011;46837;52.446;-1.930;2023-05-18T00:58:07;18.26;;;9.68;;
60641;SDS011;46837;52.446;-1.930;2023-05-18T00:59:07;16.34;;;10.20;;
60641;SDS011;46837;52.446;-1.930;2023-05-18T01:00:10;22.40;;;12.62;;
60641;SDS011;46837;52.446;-1.930;2023-05-18T01:01:07;20.34;;;11.36;;
60641;SDS011;46837;52.446;-1.930;2023-05-18T01:02:07;13.82;;;10.32;;
60641;SDS011;46837;52.446;-1.930;2023-05-18T01:03:09;19.02;;;12.20;;
60641;SDS011;46837;52.446;-1.930;2023-05-18T01:04:07;16.52;;;10.50;;
60641;SDS011;46837;52.446;-1.930;2023-05-18T01:05:10;15.20;;;9.10;;
60641;SDS011;46837;52.446;-1.930;2023-05-18T01:06:07;21.72;;;12.06;;
60641;SDS011;46837;52.446;-1.930;2023-05-18T01:07:07;15.90;;;10.50;;
60641;SDS011;46837;52.446;-1.930;2023-05-18T01:08:07;20.58;;;10.84;;
60641;SDS011;46837;52.446;-1.930;2023-05-18T01:09:08;20.34;;;10.60;;
60641;SDS011;46837;52.446;-1.930;2023-05-18T01:10:07;19.12;;;11.94;;
60641;SDS011;46837;52.446;-1.930;2023-05-18T01:13:11;19.08;;;12.04;;
60641;SDS011;46837;52.446;-1.930;2023-05-18T01:15:17;19.54;;;9.66;;
60641;SDS011;46837;52.446;-1.930;2023-05-18T01:16:08;15.52;;;10.12;;
60641;SDS011;46837;52.446;-1.930;2023-05-18T01:21:10;17.92;;;10.30;;
60641;SDS011;46837;52.446;-1.930;2023-05-18T01:24:15;17.70;;;11.62;;
60641;SDS011;46837;52.446;-1.930;2023-05-18T01:27:07;22.58;;;11.54;;
60641;SDS011;46837;52.446;-1.930;2023-05-18T01:28:07;17.92;;;11.90;;
60641;SDS011;46837;52.446;-1.930;2023-05-18T01:29:08;18.86;;;12.20;;
60641;SDS011;46837;52.446;-1.930;2023-05-18T01:30:07;18.62;;;11.84;;
60641;SDS011;46837;52.446;-1.930;2023-05-18T01:31:07;17.66;;;9.76;;
60641;SDS011;46837;52.446;-1.930;2023-05-18T01:32:07;19.46;;;11.26;;
60641;SDS011;46837;52.446;-1.930;2023-05-18T01:33:07;26.16;;;11.42;;
60641;SDS011;46837;52.446;-1.930;2023-05-18T01:34:07;19.58;;;9.90;;
60641;SDS011;46837;52.446;-1.930;2023-05-18T01:35:07;16.72;;;10.92;;
60641;SDS011;46837;52.446;-1.930;2023-05-18T01:36:07;17.04;;;11.10;;
60641;SDS011;46837;52.446;-1.930;2023-05-18T01:37:07;17.12;;;9.90;;
60641;SDS011;46837;52.446;-1.930;2023-05-18T01:38:07;18.36;;;10.60;;
60641;SDS011;46837;52.446;-1.930;2023-05-18T01:39:07;14.38;;;8.74;;
60641;SDS011;46837;52.446;-1.930;2023-05-18T01:40:07;13.18;;;10.12;;
60641;SDS011;46837;52.446;-1.930;2023-05-18T01:42:08;18.34;;;9.58;;
60641;SDS011;46837;52.446;-1.930;2023-05-18T01:43:09;16.08;;;9.98;;
60641;SDS011;46837;52.446;-1.930;2023-05-18T01:44:11;16.36;;;10.82;;
60641;SDS011;46837;52.446;-1.930;2023-05-18T01:45:08;16.98;;;10.52;;
60641;SDS011;46837;52.446;-1.930;2023-05-18T01:47:09;20.36;;;10.96;;
60641;SDS011;46837;52.446;-1.930;2023-05-18T01:48:07;16.46;;;10.92;;
60641;SDS011;46837;52.446;-1.930;2023-05-18T01:49:10;18.78;;;11.90;;
60641;SDS011;46837;52.446;-1.930;2023-05-18T01:50:09;17.68;;;10.82;;
60641;SDS011;46837;52.446;-1.930;2023-05-18T01:51:07;24.14;;;11.88;;
60641;SDS011;46837;52.446;-1.930;2023-05-18T01:53:11;15.30;;;10.46;;
60641;SDS011;46837;52.446;-1.930;2023-05-18T01:54:07;14.44;;;8.50;;
60641;SDS011;46837;52.446;-1.930;2023-05-18T01:55:07;14.34;;;10.34;;
60641;SDS011;46837;52.446;-1.930;2023-05-18T01:56:07;17.14;;;9.86;;
60641;SDS011;46837;52.446;-1.930;2023-05-18T01:57:07;16.70;;;9.56;;
60641;SDS011;46837;52.446;-1.930;2023-05-18T01:58:07;16.82;;;9.64;;
60641;SDS011;46837;52.446;-1.930;2023-05-18T01:59:07;13.66;;;8.80;;
60641;SDS011;46837;52.446;-1.930;2023-05-18T02:00:07;13.36;;;9.80;;
60641;SDS011;46837;52.446;-1.930;2023-05-18T02:01:07;14.84;;;8.44;;
60641;SDS011;46837;52.446;-1.930;2023-05-18T02:02:07;13.96;;;9.20;;
60641;SDS011;46837;52.446;-1.930;2023-05-18T02:03:07;15.30;;;8.74;;
60641;SDS011;46837;52.446;-1.930;2023-05-18T02:04:07;13.88;;;9.16;;
60641;SDS011;46837;52.446;-1.930;2023-05-18T02:05:07;15.72;;;10.30;;
60641;SDS011;46837;52.446;-1.930;2023-05-18T02:06:07;18.78;;;8.16;;
60641;SDS011;46837;52.446;-1.930;2023-05-18T02:07:07;16.06;;;8.64;;
60641;SDS011;46837;52.446;-1.930;2023-05-18T02:08:07;14.64;;;9.22;;
60641;SDS011;46837;52.446;-1.930;2023-05-18T02:09:07;16.60;;;9.36;;
60641;SDS011;46837;52.446;-1.930;2023-05-18T02:10:07;16.92;;;9.28;;
60641;SDS011;46837;52.446;-1.930;2023-05-18T02:11:07;16.14;;;9.60;;
60641;SDS011;46837;52.446;-1.930;2023-05-18T02:12:07;12.66;;;8.54;;
60641;SDS011;46837;52.446;-1.930;2023-05-18T02:13:07;14.98;;;8.32;;
60641;SDS011;46837;52.446;-1.930;2023-05-18T02:14:07;17.86;;;9.70;;
60641;SDS011;46837;52.446;-1.930;2023-05-18T02:15:07;12.44;;;7.80;;
60641;SDS011;46837;52.446;-1.930;2023-05-18T02:16:07;15.54;;;7.66;;
60641;SDS011;46837;52.446;-1.930;2023-05-18T02:17:07;18.48;;;8.38;;
60641;SDS011;46837;52.446;-1.930;2023-05-18T02:18:08;11.08;;;8.34;;
60641;SDS011;46837;52.446;-1.930;2023-05-18T02:19:07;10.38;;;7.74;;
60641;SDS011;46837;52.446;-1.930;2023-05-18T02:20:08;11.46;;;7.24;;
60641;SDS011;46837;52.446;-1.930;2023-05-18T02:21:07;12.26;;;7.62;;
60641;SDS011;46837;52.446;-1.930;2023-05-18T02:22:07;13.84;;;7.50;;
60641;SDS011;46837;52.446;-1.930;2023-05-18T02:23:07;20.52;;;8.42;;
60641;SDS011;46837;52.446;-1.930;2023-05-18T02:24:07;13.36;;;8.10;;
60641;SDS011;46837;52.446;-1.930;2023-05-18T02:25:07;12.82;;;8.76;;
60641;SDS011;46837;52.446;-1.930;2023-05-18T02:26:07;13.20;;;7.72;;
60641;SDS011;46837;52.446;-1.930;2023-05-18T02:27:07;16.06;;;8.86;;
60641;SDS011;46837;52.446;-1.930;2023-05-18T02:28:07;10.44;;;6.54;;
60641;SDS011;46837;52.446;-1.930;2023-05-18T02:29:07;16.06;;;8.64;;
60641;SDS011;46837;52.446;-1.930;2023-05-18T02:30:08;11.62;;;7.88;;
60641;SDS011;46837;52.446;-1.930;2023-05-18T02:31:07;11.00;;;8.72;;
60641;SDS011;46837;52.446;-1.930;2023-05-18T02:32:07;16.44;;;8.98;;
60641;SDS011;46837;52.446;-1.930;2023-05-18T02:33:08;16.64;;;9.18;;
60641;SDS011;46837;52.446;-1.930;2023-05-18T02:34:07;22.18;;;8.80;;
60641;SDS011;46837;52.446;-1.930;2023-05-18T02:35:07;12.96;;;8.46;;
60641;SDS011;46837;52.446;-1.930;2023-05-18T02:36:07;13.50;;;8.30;;
60641;SDS011;46837;52.446;-1.930;2023-05-18T02:37:07;13.88;;;7.70;;
60641;SDS011;46837;52.446;-1.930;2023-05-18T02:38:07;13.40;;;8.16;;
60641;SDS011;46837;52.446;-1.930;2023-05-18T02:39:09;11.20;;;7.44;;
60641;SDS011;46837;52.446;-1.930;2023-05-18T02:40:10;11.12;;;8.68;;
60641;SDS011;46837;52.446;-1.930;2023-05-18T02:41:07;16.08;;;9.06;;
60641;SDS011;46837;52.446;-1.930;2023-05-18T02:42:07;15.38;;;9.72;;
60641;SDS011;46837;52.446;-1.930;2023-05-18T02:43:07;11.02;;;8.36;;
60641;SDS011;46837;52.446;-1.930;2023-05-18T02:44:07;17.10;;;9.70;;
60641;SDS011;46837;52.446;-1.930;2023-05-18T02:45:07;17.48;;;10.36;;
60641;SDS011;46837;52.446;-1.930;2023-05-18T02:46:07;15.88;;;9.92;;
60641;SDS011;46837;52.446;-1.930;2023-05-18T02:47:07;15.16;;;10.26;;
60641;SDS011;46837;52.446;-1.930;2023-05-18T02:48:07;16.96;;;9.50;;
60641;SDS011;46837;52.446;-1.930;2023-05-18T02:49:07;12.82;;;8.88;;
60641;SDS011;46837;52.446;-1.930;2023-05-18T02:50:07;14.42;;;9.28;;
60641;SDS011;46837;52.446;-1.930;2023-05-18T02:51:07;14.00;;;8.58;;
60641;SDS011;46837;52.446;-1.930;2023-05-18T02:52:07;12.74;;;9.22;;
60641;SDS011;46837;52.446;-1.930;2023-05-18T02:53:07;13.18;;;9.88;;
60641;SDS011;46837;52.446;-1.930;2023-05-18T02:54:07;16.54;;;8.52;;
60641;SDS011;46837;52.446;-1.930;2023-05-18T02:55:07;16.88;;;9.34;;
60641;SDS011;46837;52.446;-1.930;2023-05-18T02:56:07;13.34;;;9.14;;
60641;SDS011;46837;52.446;-1.930;2023-05-18T02:57:07;17.40;;;9.96;;
60641;SDS011;46837;52.446;-1.930;2023-05-18T02:58:07;14.42;;;10.92;;
60641;SDS011;46837;52.446;-1.930;2023-05-18T02:59:07;19.38;;;8.96;;
60641;SDS011;46837;52.446;-1.930;2023-05-18T03:00:11;17.58;;;9.92;;
60641;SDS011;46837;52.446;-1.930;2023-05-18T03:01:08;18.02;;;9.56;;
60641;SDS011;46837;52.446;-1.930;2023-05-18T03:02:07;14.76;;;9.16;;
60641;SDS011;46837;52.446;-1.930;2023-05-18T03:03:07;17.12;;;10.50;;
60641;SDS011;46837;52.446;-1.930;2023-05-18T03:04:07;15.10;;;9.72;;
60641;SDS011;46837;52.446;-1.930;2023-05-18T03:05:07;16.22;;;11.62;;
60641;SDS011;46837;52.446;-1.930;2023-05-18T03:06:08;16.38;;;10.42;;
60641;SDS011;46837;52.446;-1.930;2023-05-18T03:07:07;15.68;;;9.98;;
60641;SDS011;46837;52.446;-1.930;2023-05-18T03:08:07;13.86;;;9.76;;
60641;SDS011;46837;52.446;-1.930;2023-05-18T03:09:07;13.10;;;9.64;;
60641;SDS011;46837;52.446;-1.930;2023-05-18T03:10:07;19.28;;;9.88;;
60641;SDS011;46837;52.446;-1.930;2023-05-18T03:11:07;12.48;;;8.84;;
60641;SDS011;46837;52.446;-1.930;2023-05-18T03:12:07;13.56;;;9.86;;
60641;SDS011;46837;52.446;-1.930;2023-05-18T03:13:07;14.18;;;9.28;;
60641;SDS011;46837;52.446;-1.930;2023-05-18T03:14:07;14.78;;;9.62;;
60641;SDS011;46837;52.446;-1.930;2023-05-18T03:15:07;16.24;;;11.52;;
60641;SDS011;46837;52.446;-1.930;2023-05-18T03:16:07;11.96;;;8.76;;
60641;SDS011;46837;52.446;-1.930;2023-05-18T03:17:07;15.74;;;10.12;;
60641;SDS011;46837;52.446;-1.930;2023-05-18T03:18:07;20.94;;;10.22;;
60641;SDS011;46837;52.446;-1.930;2023-05-18T03:19:07;14.02;;;9.52;;
60641;SDS011;46837;52.446;-1.930;2023-05-18T03:20:07;18.60;;;10.08;;
60641;SDS011;46837;52.446;-1.930;2023-05-18T03:21:07;18.84;;;9.00;;
60641;SDS011;46837;52.446;-1.930;2023-05-18T03:22:07;14.86;;;8.64;;
60641;SDS011;46837;52.446;-1.930;2023-05-18T03:23:07;10.44;;;7.58;;
60641;SDS011;46837;52.446;-1.930;2023-05-18T03:24:07;13.64;;;8.32;;
60641;SDS011;46837;52.446;-1.930;2023-05-18T03:25:07;10.06;;;8.34;;
60641;SDS011;46837;52.446;-1.930;2023-05-18T03:26:10;11.86;;;8.68;;
60641;SDS011;46837;52.446;-1.930;2023-05-18T03:27:07;12.44;;;8.78;;
60641;SDS011;46837;52.446;-1.930;2023-05-18T03:28:07;13.60;;;9.68;;
60641;SDS011;46837;52.446;-1.930;2023-05-18T03:29:07;15.54;;;10.20;;
60641;SDS011;46837;52.446;-1.930;2023-05-18T03:30:07;14.44;;;9.44;;
60641;SDS011;46837;52.446;-1.930;2023-05-18T03:31:07;11.80;;;8.62;;
60641;SDS011;46837;52.446;-1.930;2023-05-18T03:32:07;14.90;;;9.22;;
60641;SDS011;46837;52.446;-1.930;2023-05-18T03:33:07;12.62;;;9.28;;
60641;SDS011;46837;52.446;-1.930;2023-05-18T03:34:07;13.96;;;8.76;;
60641;SDS011;46837;52.446;-1.930;2023-05-18T03:35:07;11.64;;;8.34;;
60641;SDS011;46837;52.446;-1.930;2023-05-18T03:36:07;11.84;;;8.78;;
60641;SDS011;46837;52.446;-1.930;2023-05-18T03:37:07;13.16;;;8.46;;
60641;SDS011;46837;52.446;-1.930;2023-05-18T03:38:07;12.42;;;7.80;;
60641;SDS011;46837;52.446;-1.930;2023-05-18T03:39:07;11.38;;;7.84;;
60641;SDS011;46837;52.446;-1.930;2023-05-18T03:41:07;10.30;;;8.00;;
60641;SDS011;46837;52.446;-1.930;2023-05-18T03:42:07;17.20;;;7.12;;
60641;SDS011;46837;52.446;-1.930;2023-05-18T03:43:07;7.44;;;6.52;;
60641;SDS011;46837;52.446;-1.930;2023-05-18T03:44:07;10.00;;;7.64;;
60641;SDS011;46837;52.446;-1.930;2023-05-18T03:45:07;9.98;;;7.82;;
60641;SDS011;46837;52.446;-1.930;2023-05-18T03:46:07;12.32;;;8.68;;
60641;SDS011;46837;52.446;-1.930;2023-05-18T03:47:09;10.10;;;7.20;;
60641;SDS011;46837;52.446;-1.930;2023-05-18T03:48:07;8.68;;;6.92;;
60641;SDS011;46837;52.446;-1.930;2023-05-18T03:49:07;8.16;;;6.68;;
60641;SDS011;46837;52.446;-1.930;2023-05-18T03:50:07;11.62;;;7.28;;
60641;SDS011;46837;52.446;-1.930;2023-05-18T03:51:07;13.32;;;7.40;;
60641;SDS011;46837;52.446;-1.930;2023-05-18T03:52:07;13.52;;;7.06;;
60641;SDS011;46837;52.446;-1.930;2023-05-18T03:53:07;12.08;;;6.76;;
60641;SDS011;46837;52.446;-1.930;2023-05-18T03:54:07;10.64;;;7.72;;
60641;SDS011;46837;52.446;-1.930;2023-05-18T03:55:07;9.14;;;7.14;;
60641;SDS011;46837;52.446;-1.930;2023-05-18T03:56:07;9.12;;;6.42;;
60641;SDS011;46837;52.446;-1.930;2023-05-18T03:57:07;10.30;;;6.48;;
60641;SDS011;46837;52.446;-1.930;2023-05-18T03:58:07;11.06;;;6.72;;
60641;SDS011;46837;52.446;-1.930;2023-05-18T03:59:07;8.38;;;6.60;;
60641;SDS011;46837;52.446;-1.930;2023-05-18T04:00:10;12.82;;;6.82;;
60641;SDS011;46837;52.446;-1.930;2023-05-18T04:01:07;8.68;;;7.06;;
60641;SDS011;46837;52.446;-1.930;2023-05-18T04:02:07;9.66;;;6.98;;
60641;SDS011;46837;52.446;-1.930;2023-05-18T04:03:07;14.22;;;6.86;;
60641;SDS011;46837;52.446;-1.930;2023-05-18T04:04:10;12.22;;;7.78;;
60641;SDS011;46837;52.446;-1.930;2023-05-18T04:05:07;17.04;;;7.22;;
60641;SDS011;46837;52.446;-1.930;2023-05-18T04:06:07;8.56;;;6.88;;
60641;SDS011;46837;52.446;-1.930;2023-05-18T04:07:07;12.18;;;8.10;;
60641;SDS011;46837;52.446;-1.930;2023-05-18T04:08:07;14.16;;;7.90;;
60641;SDS011;46837;52.446;-1.930;2023-05-18T04:09:07;15.48;;;7.32;;
60641;SDS011;46837;52.446;-1.930;2023-05-18T04:10:07;12.64;;;6.84;;
60641;SDS011;46837;52.446;-1.930;2023-05-18T04:11:07;12.62;;;7.70;;
60641;SDS011;46837;52.446;-1.930;2023-05-18T04:12:07;11.86;;;7.22;;
60641;SDS011;46837;52.446;-1.930;2023-05-18T04:13:07;10.86;;;6.94;;
60641;SDS011;46837;52.446;-1.930;2023-05-18T04:14:07;12.18;;;6.52;;
60641;SDS011;46837;52.446;-1.930;2023-05-18T04:15:07;11.52;;;6.34;;
60641;SDS011;46837;52.446;-1.930;2023-05-18T04:16:07;9.44;;;6.64;;
60641;SDS011;46837;52.446;-1.930;2023-05-18T04:17:07;13.70;;;7.42;;
60641;SDS011;46837;52.446;-1.930;2023-05-18T04:18:07;9.06;;;7.64;;
60641;SDS011;46837;52.446;-1.930;2023-05-18T04:19:07;12.22;;;8.14;;
60641;SDS011;46837;52.446;-1.930;2023-05-18T04:20:11;11.92;;;7.54;;
60641;SDS011;46837;52.446;-1.930;2023-05-18T04:21:07;9.90;;;7.30;;
60641;SDS011;46837;52.446;-1.930;2023-05-18T04:22:07;11.68;;;7.36;;
60641;SDS011;46837;52.446;-1.930;2023-05-18T04:23:07;11.14;;;7.10;;
60641;SDS011;46837;52.446;-1.930;2023-05-18T04:24:07;10.06;;;7.84;;
60641;SDS011;46837;52.446;-1.930;2023-05-18T04:25:07;16.58;;;7.24;;
60641;SDS011;46837;52.446;-1.930;2023-05-18T04:26:07;12.02;;;7.04;;
60641;SDS011;46837;52.446;-1.930;2023-05-18T04:27:07;9.60;;;7.02;;
60641;SDS011;46837;52.446;-1.930;2023-05-18T04:28:07;12.74;;;7.74;;
60641;SDS011;46837;52.446;-1.930;2023-05-18T04:29:07;17.56;;;7.74;;
60641;SDS011;46837;52.446;-1.930;2023-05-18T04:30:08;12.40;;;7.94;;
60641;SDS011;46837;52.446;-1.930;2023-05-18T04:31:07;22.82;;;8.46;;
60641;SDS011;46837;52.446;-1.930;2023-05-18T04:32:07;10.36;;;7.58;;
60641;SDS011;46837;52.446;-1.930;2023-05-18T04:33:07;11.54;;;7.70;;
60641;SDS011;46837;52.446;-1.930;2023-05-18T04:34:07;8.26;;;6.74;;
60641;SDS011;46837;52.446;-1.930;2023-05-18T04:35:07;13.78;;;7.04;;
60641;SDS011;46837;52.446;-1.930;2023-05-18T04:36:07;12.06;;;7.78;;
60641;SDS011;46837;52.446;-1.930;2023-05-18T04:37:07;12.74;;;7.88;;
60641;SDS011;46837;52.446;-1.930;2023-05-18T04:38:07;12.50;;;7.24;;
60641;SDS011;46837;52.446;-1.930;2023-05-18T04:39:07;11.52;;;7.74;;
60641;SDS011;46837;52.446;-1.930;2023-05-18T04:40:10;11.78;;;7.16;;
60641;SDS011;46837;52.446;-1.930;2023-05-18T04:41:07;11.60;;;7.76;;
60641;SDS011;46837;52.446;-1.930;2023-05-18T04:42:07;10.46;;;8.26;;
60641;SDS011;46837;52.446;-1.930;2023-05-18T04:43:07;14.78;;;8.04;;
60641;SDS011;46837;52.446;-1.930;2023-05-18T04:44:07;13.22;;;8.16;;
60641;SDS011;46837;52.446;-1.930;2023-05-18T04:45:07;13.14;;;6.68;;
60641;SDS011;46837;52.446;-1.930;2023-05-18T04:46:07;12.46;;;7.18;;
60641;SDS011;46837;52.446;-1.930;2023-05-18T04:47:08;12.56;;;7.96;;
60641;SDS011;46837;52.446;-1.930;2023-05-18T04:48:07;14.98;;;7.74;;
60641;SDS011;46837;52.446;-1.930;2023-05-18T04:49:07;19.10;;;7.38;;
60641;SDS011;46837;52.446;-1.930;2023-05-18T04:50:07;14.84;;;8.24;;
60641;SDS011;46837;52.446;-1.930;2023-05-18T04:51:07;13.52;;;7.72;;
60641;SDS011;46837;52.446;-1.930;2023-05-18T04:52:08;10.80;;;6.66;;
60641;SDS011;46837;52.446;-1.930;2023-05-18T04:53:07;17.30;;;7.70;;
60641;SDS011;46837;52.446;-1.930;2023-05-18T04:54:07;15.16;;;7.70;;
60641;SDS011;46837;52.446;-1.930;2023-05-18T04:55:07;11.26;;;7.20;;
60641;SDS011;46837;52.446;-1.930;2023-05-18T04:56:07;10.72;;;7.08;;
60641;SDS011;46837;52.446;-1.930;2023-05-18T04:57:07;11.68;;;7.02;;
60641;SDS011;46837;52.446;-1.930;2023-05-18T04:58:07;11.98;;;6.76;;
60641;SDS011;46837;52.446;-1.930;2023-05-18T04:59:07;12.64;;;8.26;;
60641;SDS011;46837;52.446;-1.930;2023-05-18T05:00:07;12.04;;;7.72;;
60641;SDS011;46837;52.446;-1.930;2023-05-18T05:01:07;15.90;;;7.70;;
60641;SDS011;46837;52.446;-1.930;2023-05-18T05:02:07;10.56;;;7.70;;
60641;SDS011;46837;52.446;-1.930;2023-05-18T05:03:07;13.82;;;6.84;;
60641;SDS011;46837;52.446;-1.930;2023-05-18T05:04:07;8.58;;;6.62;;
60641;SDS011;46837;52.446;-1.930;2023-05-18T05:05:07;16.04;;;7.76;;
60641;SDS011;46837;52.446;-1.930;2023-05-18T05:06:07;16.08;;;7.04;;
60641;SDS011;46837;52.446;-1.930;2023-05-18T05:07:07;10.74;;;7.42;;
60641;SDS011;46837;52.446;-1.930;2023-05-18T05:08:07;12.00;;;6.88;;
60641;SDS011;46837;52.446;-1.930;2023-05-18T05:09:07;10.28;;;8.36;;
60641;SDS011;46837;52.446;-1.930;2023-05-18T05:10:07;14.20;;;7.30;;
60641;SDS011;46837;52.446;-1.930;2023-05-18T05:11:07;20.26;;;8.74;;
60641;SDS011;46837;52.446;-1.930;2023-05-18T05:12:07;9.26;;;6.34;;
60641;SDS011;46837;52.446;-1.930;2023-05-18T05:13:07;15.12;;;7.90;;
60641;SDS011;46837;52.446;-1.930;2023-05-18T05:14:07;12.50;;;7.86;;
60641;SDS011;46837;52.446;-1.930;2023-05-18T05:15:07;15.56;;;8.34;;
60641;SDS011;46837;52.446;-1.930;2023-05-18T05:16:07;14.14;;;8.88;;
60641;SDS011;46837;52.446;-1.930;2023-05-18T05:17:07;11.42;;;8.68;;
60641;SDS011;46837;52.446;-1.930;2023-05-18T05:18:07;17.48;;;7.94;;
60641;SDS011;46837;52.446;-1.930;2023-05-18T05:19:07;15.76;;;9.44;;
60641;SDS011;46837;52.446;-1.930;2023-05-18T05:20:07;15.44;;;8.28;;
60641;SDS011;46837;52.446;-1.930;2023-05-18T05:21:07;13.70;;;6.98;;
60641;SDS011;46837;52.446;-1.930;2023-05-18T05:22:07;13.06;;;8.20;;
60641;SDS011;46837;52.446;-1.930;2023-05-18T05:23:07;9.98;;;7.98;;
60641;SDS011;46837;52.446;-1.930;2023-05-18T05:24:07;15.44;;;7.42;;
60641;SDS011;46837;52.446;-1.930;2023-05-18T05:25:07;11.74;;;7.80;;
60641;SDS011;46837;52.446;-1.930;2023-05-18T05:26:07;11.62;;;7.70;;
60641;SDS011;46837;52.446;-1.930;2023-05-18T05:27:07;11.78;;;7.84;;
60641;SDS011;46837;52.446;-1.930;2023-05-18T05:28:07;11.80;;;7.30;;
60641;SDS011;46837;52.446;-1.930;2023-05-18T05:29:07;9.70;;;7.04;;
60641;SDS011;46837;52.446;-1.930;2023-05-18T05:30:07;15.28;;;8.18;;
60641;SDS011;46837;52.446;-1.930;2023-05-18T05:31:07;14.66;;;7.88;;
60641;SDS011;46837;52.446;-1.930;2023-05-18T05:32:07;11.26;;;7.66;;
60641;SDS011;46837;52.446;-1.930;2023-05-18T05:33:07;11.06;;;7.88;;
60641;SDS011;46837;52.446;-1.930;2023-05-18T05:34:07;8.34;;;6.98;;
60641;SDS011;46837;52.446;-1.930;2023-05-18T05:35:07;11.08;;;7.26;;
60641;SDS011;46837;52.446;-1.930;2023-05-18T05:36:07;8.30;;;7.28;;
60641;SDS011;46837;52.446;-1.930;2023-05-18T05:37:07;14.44;;;9.36;;
60641;SDS011;46837;52.446;-1.930;2023-05-18T05:38:07;11.88;;;7.90;;
60641;SDS011;46837;52.446;-1.930;2023-05-18T05:39:07;15.24;;;8.64;;
60641;SDS011;46837;52.446;-1.930;2023-05-18T05:40:07;12.68;;;8.80;;
60641;SDS011;46837;52.446;-1.930;2023-05-18T05:41:07;20.06;;;9.52;;
60641;SDS011;46837;52.446;-1.930;2023-05-18T05:42:07;12.32;;;8.24;;
60641;SDS011;46837;52.446;-1.930;2023-05-18T05:43:07;10.12;;;8.44;;
60641;SDS011;46837;52.446;-1.930;2023-05-18T05:44:07;13.54;;;8.18;;
60641;SDS011;46837;52.446;-1.930;2023-05-18T05:45:07;12.38;;;8.48;;
60641;SDS011;46837;52.446;-1.930;2023-05-18T05:46:07;11.04;;;7.72;;
60641;SDS011;46837;52.446;-1.930;2023-05-18T05:47:07;13.10;;;8.18;;
60641;SDS011;46837;52.446;-1.930;2023-05-18T05:48:07;12.34;;;7.94;;
60641;SDS011;46837;52.446;-1.930;2023-05-18T05:49:07;12.48;;;7.68;;
60641;SDS011;46837;52.446;-1.930;2023-05-18T05:50:07;10.70;;;8.54;;
60641;SDS011;46837;52.446;-1.930;2023-05-18T05:51:07;11.72;;;7.66;;
60641;SDS011;46837;52.446;-1.930;2023-05-18T05:52:07;10.64;;;7.70;;
60641;SDS011;46837;52.446;-1.930;2023-05-18T05:53:07;10.54;;;7.88;;
60641;SDS011;46837;52.446;-1.930;2023-05-18T05:54:07;27.46;;;10.68;;
60641;SDS011;46837;52.446;-1.930;2023-05-18T05:55:07;10.50;;;8.40;;
60641;SDS011;46837;52.446;-1.930;2023-05-18T05:56:07;13.42;;;8.08;;
60641;SDS011;46837;52.446;-1.930;2023-05-18T05:57:07;12.76;;;7.38;;
60641;SDS011;46837;52.446;-1.930;2023-05-18T05:58:07;12.36;;;7.34;;
60641;SDS011;46837;52.446;-1.930;2023-05-18T05:59:07;14.84;;;7.94;;
60641;SDS011;46837;52.446;-1.930;2023-05-18T06:01:07;11.24;;;7.34;;
60641;SDS011;46837;52.446;-1.930;2023-05-18T06:02:07;13.40;;;8.28;;
60641;SDS011;46837;52.446;-1.930;2023-05-18T06:03:07;10.86;;;7.54;;
60641;SDS011;46837;52.446;-1.930;2023-05-18T06:04:10;12.68;;;7.48;;
60641;SDS011;46837;52.446;-1.930;2023-05-18T06:05:07;11.84;;;7.16;;